Address 0x75801bCF71705f8A06a9924519A55C4B3b401622 12

 
Txn Hash Method
Block
From
To
Value [Txn Fee]
0xe20efbe87eec4a3b8cadc40df06abc907f11f4466b90178779ede800819f0062Swap Exact Input...2230003652024-06-18 2:16:373 hrs 43 mins ago0x75801bcf71705f8a06a9924519a55c4b3b401622OUT 0x22d0fdabd92b6bca3a0f541730f9a81a8b1a36570 ETH0.00002703 0.118727
0x53e3f400e69b9942773b33726ae0dda2f870adf48cb29f123e1cd8a3e82ce7f3Swap Exact Input...2229803882024-06-18 0:52:125 hrs 7 mins ago0x75801bcf71705f8a06a9924519a55c4b3b401622OUT 0x22d0fdabd92b6bca3a0f541730f9a81a8b1a36570 ETH0.00001 0.049331
0x7a0029422f467e97d40bc0a63c6edf9b06c7d550181a56ae838868805b1eca72Swap Exact Input...2229646322024-06-17 23:45:576 hrs 14 mins ago0x75801bcf71705f8a06a9924519a55c4b3b401622OUT 0x22d0fdabd92b6bca3a0f541730f9a81a8b1a36570 ETH0.00000238 0.01
0xda8b9c7522cd81a95ea0b80516e53332ab9b23a495041bebe0c379e47b7c26f5Swap Exact Input...2229488032024-06-17 22:39:427 hrs 20 mins ago0x75801bcf71705f8a06a9924519a55c4b3b401622OUT 0x22d0fdabd92b6bca3a0f541730f9a81a8b1a36570 ETH0.00000245 0.01
0xbba02f584389bfc0f50406300c80d6a34f27c3e94aec9257415298b63358465fSwap Exact Input...2229329242024-06-17 21:33:268 hrs 26 mins ago0x75801bcf71705f8a06a9924519a55c4b3b401622OUT 0x22d0fdabd92b6bca3a0f541730f9a81a8b1a36570 ETH0.00000277 0.01
0x31260406677d457804e16ec0b0833c3c88befe8b618b6857529d8fbd73ee5fa8Swap Exact Input...2229171862024-06-17 20:27:129 hrs 32 mins ago0x75801bcf71705f8a06a9924519a55c4b3b401622OUT 0x22d0fdabd92b6bca3a0f541730f9a81a8b1a36570 ETH0.00000337 0.01
0xa981762a65235b4f5e52bae3e07796a9fb5e2f72729e1bf726cb28e7e43366edSwap Exact Input...2229013212024-06-17 19:20:5710 hrs 39 mins ago0x75801bcf71705f8a06a9924519a55c4b3b401622OUT 0x22d0fdabd92b6bca3a0f541730f9a81a8b1a36570 ETH0.000003 0.01
0x6cfa57367fc826d31726af2bdb883a67da9261c97044e35be9924d290f36e7ecSwap Exact Input...2228855012024-06-17 18:14:4111 hrs 45 mins ago0x75801bcf71705f8a06a9924519a55c4b3b401622OUT 0x22d0fdabd92b6bca3a0f541730f9a81a8b1a36570 ETH0.0000033 0.011244
0xe66251d4aee96a9bcfdbab5dd0bc44f2d9a391d93e39cc448e38c0ad11047f96Swap Exact Input...2228696962024-06-17 17:08:2712 hrs 51 mins ago0x75801bcf71705f8a06a9924519a55c4b3b401622OUT 0x22d0fdabd92b6bca3a0f541730f9a81a8b1a36570 ETH0.0000041 0.01
0x9ab5536fe85c86368ea7e3e2755d24efe5d0bb7b828ec49e135b40eef0377816Swap Exact Input...2228539782024-06-17 16:02:1213 hrs 57 mins ago0x75801bcf71705f8a06a9924519a55c4b3b401622OUT 0x22d0fdabd92b6bca3a0f541730f9a81a8b1a36570 ETH0.00000411 0.013932
0x6db0d63fb50949ea77567b43fd6a46bec46ad2707af0e2d5c8401b68ae19117dSwap Exact Input...2228381262024-06-17 14:55:5615 hrs 4 mins ago0x75801bcf71705f8a06a9924519a55c4b3b401622OUT 0x22d0fdabd92b6bca3a0f541730f9a81a8b1a36570 ETH0.00000348 0.01
0x48ad57b5f495a46f0005e7295288f92b4eaba837c046231b997f73aad54f0dd6Swap Exact Input...2224166092024-06-16 9:37:191 day 20 hrs ago0x75801bcf71705f8a06a9924519a55c4b3b401622OUT 0x22d0fdabd92b6bca3a0f541730f9a81a8b1a36570 ETH0.0000024 0.01
0xcb9e09c1acdabe67b5a46c72b3c118cd8fc4da25f8e7077fb17577d7e4073940Swap Exact Input...2224004402024-06-16 8:30:071 day 21 hrs ago0x75801bcf71705f8a06a9924519a55c4b3b401622OUT 0x22d0fdabd92b6bca3a0f541730f9a81a8b1a36570 ETH0.00000226 0.01
0x9a4ec9c2ae39bfb29e74ca552fff0fcf4027b7a807f05e7a3a2ae4a520c89baaSwap Exact Input...2223843282024-06-16 7:23:101 day 22 hrs ago0x75801bcf71705f8a06a9924519a55c4b3b401622OUT 0x22d0fdabd92b6bca3a0f541730f9a81a8b1a36570 ETH0.00000234 0.01
0x86070cdbb4b3085acb9c58b3496afaaf1713dbab5918da54528ba7d599486c44Swap Exact Input...2223684092024-06-16 6:16:561 day 23 hrs ago0x75801bcf71705f8a06a9924519a55c4b3b401622OUT 0x22d0fdabd92b6bca3a0f541730f9a81a8b1a36570 ETH0.00000226 0.01
0xfaee28060870eadd205b947748463549aa266b386b57f75c9bd6eca4f304fc7dSwap Exact Input...2223524932024-06-16 5:10:422 days 49 mins ago0x75801bcf71705f8a06a9924519a55c4b3b401622OUT 0x22d0fdabd92b6bca3a0f541730f9a81a8b1a36570 ETH0.00000219 0.01
0x7c34436ea9e45cc2b2548e03e2a769a666ee4b0c66622fabb267df3bbab319fdSwap Exact Input...2223365672024-06-16 4:04:242 days 1 hr ago0x75801bcf71705f8a06a9924519a55c4b3b401622OUT 0x22d0fdabd92b6bca3a0f541730f9a81a8b1a36570 ETH0.00000219 0.01
0x34a45c2106d3b2be25a3fba582b7b80c9b4cb6aa21c62dc33b89aaaabc1915caSwap Exact Input...2217249542024-06-14 9:36:333 days 20 hrs ago0x75801bcf71705f8a06a9924519a55c4b3b401622OUT 0x22d0fdabd92b6bca3a0f541730f9a81a8b1a36570 ETH0.00000264 0.01
0x70b4bd8cb54031b09d853c91af3f1e7ae8f0150935ab05728e38ad74d5a3bb87Swap Exact Input...2217090342024-06-14 8:30:173 days 21 hrs ago0x75801bcf71705f8a06a9924519a55c4b3b401622OUT 0x22d0fdabd92b6bca3a0f541730f9a81a8b1a36570 ETH0.0000031 0.01
0x3bc788370157de9ce589b3a8ee1e6138794e4330452342778faad8b27e0ba45cSwap Exact Input...2216931582024-06-14 7:24:023 days 22 hrs ago0x75801bcf71705f8a06a9924519a55c4b3b401622OUT 0x22d0fdabd92b6bca3a0f541730f9a81a8b1a36570 ETH0.00000258 0.01
0xa86082444319a57b3b68e26f3256af56b8269251befc208f7afa7006f1e9ca65Swap Exact Input...2203086642024-06-10 7:17:127 days 22 hrs ago0x75801bcf71705f8a06a9924519a55c4b3b401622OUT 0x22d0fdabd92b6bca3a0f541730f9a81a8b1a36570 ETH0.00000262 0.01
0x79f7f55e0453c5aa9408332b88bc6b34f500af3316d04bbf259e5c5f17ae5dd9Swap Exact Input...2202458532024-06-10 2:54:598 days 3 hrs ago0x75801bcf71705f8a06a9924519a55c4b3b401622OUT 0x22d0fdabd92b6bca3a0f541730f9a81a8b1a36570 ETH0.00000228 0.01
0xa6e385bd19eecc7037b64a35ecd1df373d71899b773762bf20219e90575ee74fSwap Exact Input...2192619632024-06-07 6:25:1510 days 23 hrs ago0x75801bcf71705f8a06a9924519a55c4b3b401622OUT 0x22d0fdabd92b6bca3a0f541730f9a81a8b1a36570 ETH0.00000289 0.01
0x22aa738dd475a7c5d0e619b1890952f98e9cf5129be39d9fc4b8bef67d192787Swap Exact Input...2192460762024-06-07 5:19:0211 days 41 mins ago0x75801bcf71705f8a06a9924519a55c4b3b401622OUT 0x22d0fdabd92b6bca3a0f541730f9a81a8b1a36570 ETH0.0000028 0.01
0xb5ec8f8d869a93443cc9065d1c91f870cd1091f21d3a62f55cfe9501fafa0d17Swap Exact Input...2192302242024-06-07 4:12:4411 days 1 hr ago0x75801bcf71705f8a06a9924519a55c4b3b401622OUT 0x22d0fdabd92b6bca3a0f541730f9a81a8b1a36570 ETH0.00000287 0.01
[ Download CSV Export 
Latest 4 internal transactions
Parent Txn Hash Block From To Value
0x8d369a540bdabc585cd5762e7f849669b4c519a14d6881c88c43bbbf8a8694f91721901692024-01-20 1:29:38150 days 4 hrs ago Wrapped Ether0x75801bcf71705f8a06a9924519a55c4b3b4016220.362213098325809621 ETH
0xc193c07353185bd79169f6413a4f42e844b0267dbd8aa41d56f45bc25fc13aaa1611343082023-12-18 4:05:39183 days 1 hr ago Wrapped Ether0x75801bcf71705f8a06a9924519a55c4b3b4016220.02 ETH
0xdd789c4e8b45060b80579141156f15a16da6dcde0c42d9c3247da3e8c9b6b72c1596227642023-12-13 6:20:31187 days 23 hrs ago Wrapped Ether0x75801bcf71705f8a06a9924519a55c4b3b4016220.01 ETH
0x142f6b579986a2512f6770c5010f298b24a9de04b2646c1ffdee4d641dc89d8e1418810732023-10-19 3:36:24243 days 2 hrs ago Wrapped Ether0x75801bcf71705f8a06a9924519a55c4b3b4016220.271939594497308741 ETH
[ Download CSV Export 
Loading

Contract Name:
0 ETH

Compiler Version
0

Optimization Enabled:
0 ETH

Other Settings:
-NA-
Block Transaction Gas Used Reward
Age Block Fee Address BC Fee Address Voting Power Jailed Incoming
Block Uncle Number Difficulty Gas Used Reward
Loading
Make sure to use the "Vote Down" button for any spammy posts, and the "Vote Up" for interesting conversations.